sensor_id;sensor_type;location;lat;lon;timestamp;P1;P2;P0
57623;PMS7003;43448;52.264;20.644;2023-02-28T00:00:01;20;18;
57623;PMS7003;43448;52.264;20.644;2023-02-28T00:10:01;18;17;
57623;PMS7003;43448;52.264;20.644;2023-02-28T00:20:01;21;18;
57623;PMS7003;43448;52.264;20.644;2023-02-28T00:30:01;21;20;
57623;PMS7003;43448;52.264;20.644;2023-02-28T00:40:01;20;19;
57623;PMS7003;43448;52.264;20.644;2023-02-28T00:50:00;21;17;
57623;PMS7003;43448;52.264;20.644;2023-02-28T01:00:01;28;21;
57623;PMS7003;43448;52.264;20.644;2023-02-28T01:10:00;26;19;
57623;PMS7003;43448;52.264;20.644;2023-02-28T01:20:00;20;18;
57623;PMS7003;43448;52.264;20.644;2023-02-28T01:30:01;19;16;
57623;PMS7003;43448;52.264;20.644;2023-02-28T01:40:00;25;20;
57623;PMS7003;43448;52.264;20.644;2023-02-28T01:50:01;25;20;
57623;PMS7003;43448;52.264;20.644;2023-02-28T02:00:02;23;16;
57623;PMS7003;43448;52.264;20.644;2023-02-28T02:10:02;22;20;
57623;PMS7003;43448;52.264;20.644;2023-02-28T02:20:07;20;16;
57623;PMS7003;43448;52.264;20.644;2023-02-28T02:30:36;24;18;
57623;PMS7003;43448;52.264;20.644;2023-02-28T02:40:04;26;22;
57623;PMS7003;43448;52.264;20.644;2023-02-28T02:50:02;25;20;
57623;PMS7003;43448;52.264;20.644;2023-02-28T03:00:02;24;21;
57623;PMS7003;43448;52.264;20.644;2023-02-28T03:10:00;13;13;
57623;PMS7003;43448;52.264;20.644;2023-02-28T03:20:03;19;19;
57623;PMS7003;43448;52.264;20.644;2023-02-28T03:30:02;21;19;
57623;PMS7003;43448;52.264;20.644;2023-02-28T03:40:01;19;16;
57623;PMS7003;43448;52.264;20.644;2023-02-28T03:50:01;22;20;
57623;PMS7003;43448;52.264;20.644;2023-02-28T04:00:03;25;18;
57623;PMS7003;43448;52.264;20.644;2023-02-28T04:10:00;21;21;
57623;PMS7003;43448;52.264;20.644;2023-02-28T04:20:00;21;21;
57623;PMS7003;43448;52.264;20.644;2023-02-28T04:30:00;26;21;
57623;PMS7003;43448;52.264;20.644;2023-02-28T04:40:01;22;19;
57623;PMS7003;43448;52.264;20.644;2023-02-28T04:50:00;19;19;
57623;PMS7003;43448;52.264;20.644;2023-02-28T05:00:01;24;22;
57623;PMS7003;43448;52.264;20.644;2023-02-28T05:10:00;23;20;
57623;PMS7003;43448;52.264;20.644;2023-02-28T05:20:00;37;28;
57623;PMS7003;43448;52.264;20.644;2023-02-28T05:30:00;37;30;
57623;PMS7003;43448;52.264;20.644;2023-02-28T05:40:01;30;25;
57623;PMS7003;43448;52.264;20.644;2023-02-28T05:50:01;33;25;
57623;PMS7003;43448;52.264;20.644;2023-02-28T06:00:01;28;26;
57623;PMS7003;43448;52.264;20.644;2023-02-28T06:10:00;28;22;
57623;PMS7003;43448;52.264;20.644;2023-02-28T06:20:00;31;23;
57623;PMS7003;43448;52.264;20.644;2023-02-28T06:30:01;26;22;
57623;PMS7003;43448;52.264;20.644;2023-02-28T06:40:01;30;25;
57623;PMS7003;43448;52.264;20.644;2023-02-28T06:50:00;29;23;
57623;PMS7003;43448;52.264;20.644;2023-02-28T07:00:02;31;23;
57623;PMS7003;43448;52.264;20.644;2023-02-28T07:10:00;34;24;
57623;PMS7003;43448;52.264;20.644;2023-02-28T07:20:01;33;23;
57623;PMS7003;43448;52.264;20.644;2023-02-28T07:30:01;25;20;
57623;PMS7003;43448;52.264;20.644;2023-02-28T07:40:01;31;23;
57623;PMS7003;43448;52.264;20.644;2023-02-28T07:50:00;21;19;
57623;PMS7003;43448;52.264;20.644;2023-02-28T08:00:01;22;19;
57623;PMS7003;43448;52.264;20.644;2023-02-28T08:10:00;26;23;
57623;PMS7003;43448;52.264;20.644;2023-02-28T08:20:00;23;20;
57623;PMS7003;43448;52.264;20.644;2023-02-28T08:30:00;20;18;
57623;PMS7003;43448;52.264;20.644;2023-02-28T08:40:00;21;18;
57623;PMS7003;43448;52.264;20.644;2023-02-28T08:50:00;21;17;
57623;PMS7003;43448;52.264;20.644;2023-02-28T09:00:02;18;16;
57623;PMS7003;43448;52.264;20.644;2023-02-28T09:10:00;23;21;
57623;PMS7003;43448;52.264;20.644;2023-02-28T09:20:00;18;14;
57623;PMS7003;43448;52.264;20.644;2023-02-28T09:30:00;18;16;
57623;PMS7003;43448;52.264;20.644;2023-02-28T09:40:00;20;17;
57623;PMS7003;43448;52.264;20.644;2023-02-28T09:50:03;12;11;
57623;PMS7003;43448;52.264;20.644;2023-02-28T10:00:03;20;17;
57623;PMS7003;43448;52.264;20.644;2023-02-28T10:10:01;14;14;
57623;PMS7003;43448;52.264;20.644;2023-02-28T10:20:01;14;14;
57623;PMS7003;43448;52.264;20.644;2023-02-28T10:30:02;16;13;
57623;PMS7003;43448;52.264;20.644;2023-02-28T10:40:00;16;13;
57623;PMS7003;43448;52.264;20.644;2023-02-28T10:50:00;16;14;
57623;PMS7003;43448;52.264;20.644;2023-02-28T11:00:06;17;16;
57623;PMS7003;43448;52.264;20.644;2023-02-28T11:10:00;15;14;
57623;PMS7003;43448;52.264;20.644;2023-02-28T11:20:01;17;12;
57623;PMS7003;43448;52.264;20.644;2023-02-28T11:30:01;16;13;
57623;PMS7003;43448;52.264;20.644;2023-02-28T11:40:01;12;11;
57623;PMS7003;43448;52.264;20.644;2023-02-28T11:50:04;12;12;
57623;PMS7003;43448;52.264;20.644;2023-02-28T12:00:03;12;10;
57623;PMS7003;43448;52.264;20.644;2023-02-28T12:10:03;11;11;
57623;PMS7003;43448;52.264;20.644;2023-02-28T12:20:02;15;11;
57623;PMS7003;43448;52.264;20.644;2023-02-28T12:30:02;12;11;
57623;PMS7003;43448;52.264;20.644;2023-02-28T12:40:02;15;11;
57623;PMS7003;43448;52.264;20.644;2023-02-28T12:50:02;11;9;
57623;PMS7003;43448;52.264;20.644;2023-02-28T13:00:01;15;10;
57623;PMS7003;43448;52.264;20.644;2023-02-28T13:10:02;10;10;
57623;PMS7003;43448;52.264;20.644;2023-02-28T13:20:00;9;9;
57623;PMS7003;43448;52.264;20.644;2023-02-28T13:30:01;11;9;
57623;PMS7003;43448;52.264;20.644;2023-02-28T13:40:14;15;11;
57623;PMS7003;43448;52.264;20.644;2023-02-28T13:50:14;15;12;
57623;PMS7003;43448;52.264;20.644;2023-02-28T14:00:05;14;11;
57623;PMS7003;43448;52.264;20.644;2023-02-28T14:10:02;11;9;
57623;PMS7003;43448;52.264;20.644;2023-02-28T14:20:00;12;12;
57623;PMS7003;43448;52.264;20.644;2023-02-28T14:31:06;14;12;
57623;PMS7003;43448;52.264;20.644;2023-02-28T14:40:00;14;11;
57623;PMS7003;43448;52.264;20.644;2023-02-28T14:50:01;13;11;
57623;PMS7003;43448;52.264;20.644;2023-02-28T15:00:04;16;13;
57623;PMS7003;43448;52.264;20.644;2023-02-28T15:10:09;10;10;
57623;PMS7003;43448;52.264;20.644;2023-02-28T15:20:00;16;13;
57623;PMS7003;43448;52.264;20.644;2023-02-28T15:30:04;13;13;
57623;PMS7003;43448;52.264;20.644;2023-02-28T15:40:05;11;11;
57623;PMS7003;43448;52.264;20.644;2023-02-28T15:50:01;16;11;
57623;PMS7003;43448;52.264;20.644;2023-02-28T16:00:03;18;14;
57623;PMS7003;43448;52.264;20.644;2023-02-28T16:10:01;17;16;
57623;PMS7003;43448;52.264;20.644;2023-02-28T16:20:01;16;11;
57623;PMS7003;43448;52.264;20.644;2023-02-28T16:30:01;14;10;
57623;PMS7003;43448;52.264;20.644;2023-02-28T16:40:01;15;12;
57623;PMS7003;43448;52.264;20.644;2023-02-28T16:50:00;14;13;
57623;PMS7003;43448;52.264;20.644;2023-02-28T17:00:01;15;12;
57623;PMS7003;43448;52.264;20.644;2023-02-28T17:10:00;12;11;
57623;PMS7003;43448;52.264;20.644;2023-02-28T17:20:01;18;13;
57623;PMS7003;43448;52.264;20.644;2023-02-28T17:30:01;20;15;
57623;PMS7003;43448;52.264;20.644;2023-02-28T17:40:01;20;20;
57623;PMS7003;43448;52.264;20.644;2023-02-28T17:50:00;19;17;
57623;PMS7003;43448;52.264;20.644;2023-02-28T18:00:01;19;15;
57623;PMS7003;43448;52.264;20.644;2023-02-28T18:10:01;18;17;
57623;PMS7003;43448;52.264;20.644;2023-02-28T18:20:01;19;18;
57623;PMS7003;43448;52.264;20.644;2023-02-28T18:30:01;19;16;
57623;PMS7003;43448;52.264;20.644;2023-02-28T18:40:00;21;18;
57623;PMS7003;43448;52.264;20.644;2023-02-28T18:50:01;17;17;
57623;PMS7003;43448;52.264;20.644;2023-02-28T19:00:01;19;17;
57623;PMS7003;43448;52.264;20.644;2023-02-28T19:10:00;18;14;
57623;PMS7003;43448;52.264;20.644;2023-02-28T19:20:00;18;16;
57623;PMS7003;43448;52.264;20.644;2023-02-28T19:30:01;27;21;
57623;PMS7003;43448;52.264;20.644;2023-02-28T19:40:01;28;23;
57623;PMS7003;43448;52.264;20.644;2023-02-28T19:50:01;22;22;
57623;PMS7003;43448;52.264;20.644;2023-02-28T20:00:01;25;21;
57623;PMS7003;43448;52.264;20.644;2023-02-28T20:10:01;23;18;
57623;PMS7003;43448;52.264;20.644;2023-02-28T20:20:01;27;20;
57623;PMS7003;43448;52.264;20.644;2023-02-28T20:30:01;23;23;
57623;PMS7003;43448;52.264;20.644;2023-02-28T20:40:00;26;24;
57623;PMS7003;43448;52.264;20.644;2023-02-28T20:50:01;22;21;
57623;PMS7003;43448;52.264;20.644;2023-02-28T21:00:01;24;19;
57623;PMS7003;43448;52.264;20.644;2023-02-28T21:10:00;26;22;
57623;PMS7003;43448;52.264;20.644;2023-02-28T21:20:00;24;21;
57623;PMS7003;43448;52.264;20.644;2023-02-28T21:30:01;28;22;
57623;PMS7003;43448;52.264;20.644;2023-02-28T21:40:00;26;20;
57623;PMS7003;43448;52.264;20.644;2023-02-28T21:50:00;27;23;
57623;PMS7003;43448;52.264;20.644;2023-02-28T22:00:01;28;24;
57623;PMS7003;43448;52.264;20.644;2023-02-28T22:10:00;28;24;
57623;PMS7003;43448;52.264;20.644;2023-02-28T22:20:00;30;24;
57623;PMS7003;43448;52.264;20.644;2023-02-28T22:30:01;28;25;
57623;PMS7003;43448;52.264;20.644;2023-02-28T22:40:00;29;26;
57623;PMS7003;43448;52.264;20.644;2023-02-28T22:50:00;37;26;
57623;PMS7003;43448;52.264;20.644;2023-02-28T23:00:03;31;25;
57623;PMS7003;43448;52.264;20.644;2023-02-28T23:10:02;30;27;
57623;PMS7003;43448;52.264;20.644;2023-02-28T23:20:00;37;25;
57623;PMS7003;43448;52.264;20.644;2023-02-28T23:30:01;30;24;
57623;PMS7003;43448;52.264;20.644;2023-02-28T23:40:00;30;28;
57623;PMS7003;43448;52.264;20.644;2023-02-28T23:50:00;31;24;
